Time;durP1;ratioP1;P1;durP2;ratioP2;P2;SDS_P1;SDS_P2;PMS_P1;PMS_P2;Temp;Humidity;BMP_temperature;BMP_pressure;BME280_temperature;BME280_humidity;BME280_pressure;Samples;Min_cycle;Max_cycle;Signal;HPM_P1;HPM_P2
2021/08/28 00:00:28;;;;;;;12.52;4.63;;;15.80;59.10;;;;;;6251476;23;20330;-73
2021/08/28 00:02:54;;;;;;;14.90;4.95;;;15.80;59.10;;;;;;6251265;23;20039;-74
2021/08/28 00:05:20;;;;;;;15.45;4.70;;;15.80;59.20;;;;;;6252017;23;20004;-73
2021/08/28 00:07:46;;;;;;;13.50;5.22;;;15.80;59.20;;;;;;6251030;23;20011;-75
2021/08/28 00:10:13;;;;;;;14.43;4.63;;;15.70;59.10;;;;;;6251453;23;20011;-75
2021/08/28 00:12:39;;;;;;;13.05;5.15;;;15.70;59.70;;;;;;6224455;23;20008;-74
2021/08/28 00:15:07;;;;;;;14.07;5.68;;;15.70;59.90;;;;;;6251477;23;20070;-74
2021/08/28 00:17:34;;;;;;;14.93;6.05;;;15.70;61.00;;;;;;6250878;23;19996;-75
2021/08/28 00:20:05;;;;;;;14.43;5.00;;;15.60;60.00;;;;;;6251559;23;20098;-74
2021/08/28 00:22:31;;;;;;;17.80;5.85;;;15.60;59.70;;;;;;6251294;23;20004;-73
2021/08/28 00:24:57;;;;;;;13.45;4.93;;;15.60;59.50;;;;;;6251193;23;20007;-73
2021/08/28 00:27:23;;;;;;;11.35;5.47;;;15.50;59.30;;;;;;6251242;23;20052;-73
2021/08/28 00:29:49;;;;;;;13.52;5.75;;;15.50;59.30;;;;;;6251439;23;20327;-73
2021/08/28 00:32:16;;;;;;;18.95;7.38;;;15.50;59.50;;;;;;6250933;23;20040;-75
2021/08/28 00:34:43;;;;;;;23.13;8.95;;;15.50;59.10;;;;;;6251635;23;20000;-74
2021/08/28 00:37:09;;;;;;;29.10;9.20;;;15.40;59.20;;;;;;6251595;23;20053;-73
2021/08/28 00:39:34;;;;;;;19.38;7.50;;;15.40;59.90;;;;;;6251187;23;19997;-74
2021/08/28 00:42:00;;;;;;;16.67;6.45;;;15.40;63.40;;;;;;6251020;23;20342;-74
2021/08/28 00:44:26;;;;;;;16.77;6.38;;;15.40;62.40;;;;;;6251379;23;20079;-74
2021/08/28 00:46:55;;;;;;;15.48;5.72;;;15.30;61.50;;;;;;6250646;23;20018;-74
2021/08/28 00:49:21;;;;;;;18.63;5.95;;;15.30;64.50;;;;;;6250871;23;20328;-74
2021/08/28 00:51:47;;;;;;;16.00;5.45;;;15.30;62.40;;;;;;6251333;23;20008;-74
2021/08/28 00:54:13;;;;;;;14.40;6.53;;;15.30;64.90;;;;;;6250970;23;20030;-74
2021/08/28 00:56:40;;;;;;;16.85;6.43;;;15.20;66.80;;;;;;6251225;23;20423;-74
2021/08/28 00:59:07;;;;;;;17.05;6.07;;;15.30;66.90;;;;;;6224222;23;20336;-73
2021/08/28 01:01:37;;;;;;;16.77;5.82;;;15.20;65.90;;;;;;6250785;23;20431;-74
2021/08/28 01:04:05;;;;;;;14.75;5.88;;;15.20;64.90;;;;;;6251171;23;20007;-73
2021/08/28 01:06:46;;;;;;;11.73;5.18;;;15.20;63.50;;;;;;6251172;23;20442;-74
2021/08/28 01:09:26;;;;;;;13.27;5.47;;;15.10;62.80;;;;;;6249745;23;20004;-71
2021/08/28 01:12:15;;;;;;;17.73;6.55;;;15.10;62.30;;;;;;6251078;23;20486;-77
2021/08/28 01:14:44;;;;;;;13.57;5.68;;;15.00;62.70;;;;;;6250740;23;20087;-74
2021/08/28 01:17:13;;;;;;;13.50;5.00;;;15.00;61.90;;;;;;6222627;23;20039;-74
2021/08/28 01:20:05;;;;;;;18.05;6.10;;;15.00;62.50;;;;;;6250833;23;20000;-74
2021/08/28 01:22:32;;;;;;;17.10;6.05;;;15.00;63.80;;;;;;6250607;23;20011;-74
2021/08/28 01:24:59;;;;;;;15.57;5.93;;;15.00;66.20;;;;;;6250482;23;20022;-74
2021/08/28 01:27:28;;;;;;;16.00;6.40;;;15.00;66.90;;;;;;6250217;23;19996;-73
2021/08/28 01:29:54;;;;;;;24.92;7.72;;;14.90;67.00;;;;;;6250816;23;20007;-74
2021/08/28 01:32:22;;;;;;;23.27;6.70;;;14.90;68.00;;;;;;6250316;23;20001;-74
2021/08/28 01:34:48;;;;;;;20.17;7.43;;;14.90;68.80;;;;;;6250716;23;20427;-74
2021/08/28 01:37:17;;;;;;;16.50;5.85;;;14.80;71.50;;;;;;6250748;23;20000;-74
2021/08/28 01:39:45;;;;;;;20.15;7.28;;;14.80;68.90;;;;;;6250532;23;20019;-74
2021/08/28 01:42:12;;;;;;;21.75;6.85;;;14.80;70.30;;;;;;6250813;23;20000;-73
2021/08/28 01:44:38;;;;;;;18.88;6.45;;;14.70;69.00;;;;;;6250888;23;20083;-74
2021/08/28 01:47:08;;;;;;;21.67;7.72;;;14.70;70.70;;;;;;6250297;23;20007;-74
2021/08/28 01:49:35;;;;;;;19.73;7.00;;;14.70;71.40;;;;;;6250206;23;20000;-74
2021/08/28 01:52:01;;;;;;;18.52;7.13;;;14.60;72.70;;;;;;6250359;23;20007;-74
2021/08/28 01:54:27;;;;;;;20.27;8.30;;;14.60;71.80;;;;;;6250238;23;19996;-74
2021/08/28 01:56:53;;;;;;;21.45;7.20;;;14.60;71.00;;;;;;6250184;23;20000;-74
2021/08/28 01:59:21;;;;;;;14.27;6.20;;;14.50;70.80;;;;;;6250756;23;20052;-74
2021/08/28 02:01:47;;;;;;;25.00;7.50;;;14.50;68.90;;;;;;6250049;23;20004;-74
2021/08/28 02:04:13;;;;;;;14.38;6.53;;;14.50;72.30;;;;;;6250808;23;20010;-75
2021/08/28 02:06:51;;;;;;;18.33;6.93;;;14.40;70.10;;;;;;6250457;23;20019;-74
2021/08/28 02:09:29;;;;;;;20.95;6.10;;;14.40;69.80;;;;;;6250402;23;20330;-74
2021/08/28 02:12:12;;;;;;;15.02;6.13;;;14.40;72.10;;;;;;6250788;23;20075;-75
2021/08/28 02:14:51;;;;;;;20.60;6.40;;;14.40;71.40;;;;;;6250394;23;20007;-75
2021/08/28 02:17:18;;;;;;;16.85;5.93;;;14.30;68.90;;;;;;6222911;23;20004;-75
2021/08/28 02:19:46;;;;;;;18.95;6.38;;;14.30;68.80;;;;;;6250628;23;20004;-74
2021/08/28 02:22:25;;;;;;;19.80;6.43;;;14.30;71.30;;;;;;6250002;23;20004;-76
2021/08/28 02:24:58;;;;;;;20.60;6.90;;;14.20;70.90;;;;;;6249967;23;20068;-75
2021/08/28 02:27:31;;;;;;;25.75;8.57;;;14.20;70.70;;;;;;6250551;23;20103;-75
2021/08/28 02:30:03;;;;;;;16.13;6.38;;;14.20;71.00;;;;;;6250468;23;20079;-74
2021/08/28 02:32:30;;;;;;;23.38;8.15;;;14.20;71.70;;;;;;6249787;23;20001;-74
2021/08/28 02:34:57;;;;;;;23.70;7.57;;;14.20;71.50;;;;;;6252230;23;20472;-75
2021/08/28 02:37:24;;;;;;;21.70;7.03;;;14.10;73.50;;;;;;6225621;23;20008;-76
2021/08/28 02:39:51;;;;;;;24.23;7.95;;;14.10;71.00;;;;;;6225268;23;20320;-77
2021/08/28 02:42:17;;;;;;;21.75;7.25;;;14.10;72.20;;;;;;6251991;23;19996;-76
2021/08/28 02:44:45;;;;;;;16.52;6.75;;;14.10;73.30;;;;;;6252805;23;20054;-76
2021/08/28 02:47:12;;;;;;;23.77;7.65;;;14.00;73.40;;;;;;6224775;23;20060;-75
2021/08/28 02:49:40;;;;;;;21.58;7.93;;;14.00;75.30;;;;;;6225157;23;20004;-76
2021/08/28 02:52:08;;;;;;;24.65;7.90;;;14.00;74.30;;;;;;6252121;23;20546;-76
2021/08/28 02:54:38;;;;;;;21.42;7.28;;;14.00;73.70;;;;;;6251956;23;20327;-75
2021/08/28 02:57:05;;;;;;;17.05;7.65;;;13.90;73.20;;;;;;6224528;23;20007;-75
2021/08/28 02:59:31;;;;;;;12.93;6.10;;;14.00;71.30;;;;;;6252221;23;20000;-76
2021/08/28 03:01:57;;;;;;;21.20;6.18;;;13.90;69.20;;;;;;6251480;23;19996;-75
2021/08/28 03:04:25;;;;;;;29.35;10.88;;;13.90;69.30;;;;;;6252034;23;20011;-75
2021/08/28 03:06:51;;;;;;;24.75;9.18;;;13.90;69.60;;;;;;6224724;23;20115;-75
2021/08/28 03:09:17;;;;;;;27.00;8.25;;;13.90;70.70;;;;;;6252362;23;20035;-74
2021/08/28 03:11:45;;;;;;;20.30;7.55;;;13.80;70.80;;;;;;6251645;23;20034;-74
2021/08/28 03:14:11;;;;;;;20.90;6.75;;;13.90;72.50;;;;;;6251849;23;20182;-75
2021/08/28 03:16:41;;;;;;;17.10;7.38;;;13.80;71.80;;;;;;6251616;23;19996;-74
2021/08/28 03:19:09;;;;;;;17.75;7.00;;;13.80;68.90;;;;;;6252033;23;20497;-74
2021/08/28 03:21:38;;;;;;;18.13;7.18;;;13.80;67.60;;;;;;6251586;23;20309;-74
2021/08/28 03:24:05;;;;;;;20.98;7.15;;;13.80;70.40;;;;;;6251841;23;20331;-76
2021/08/28 03:26:33;;;;;;;23.27;7.70;;;13.70;71.60;;;;;;6224679;23;20032;-75
2021/08/28 03:29:00;;;;;;;24.60;8.57;;;13.70;68.70;;;;;;6251856;23;20000;-75
2021/08/28 03:31:26;;;;;;;19.08;7.07;;;13.70;73.50;;;;;;6251146;23;20004;-74
2021/08/28 03:33:59;;;;;;;21.10;7.45;;;13.70;73.10;;;;;;6251857;23;20012;-75
2021/08/28 03:36:26;;;;;;;25.10;7.40;;;13.60;70.30;;;;;;6252418;23;20024;-74
2021/08/28 03:38:52;;;;;;;17.85;8.10;;;13.70;72.40;;;;;;6251797;23;20000;-74
2021/08/28 03:41:18;;;;;;;19.60;7.45;;;13.70;72.40;;;;;;6251663;23;20458;-74
2021/08/28 03:43:46;;;;;;;22.10;6.82;;;13.70;72.00;;;;;;6251889;23;20004;-74
2021/08/28 03:46:13;;;;;;;26.10;7.82;;;13.60;71.90;;;;;;6250698;23;20386;-74
2021/08/28 03:48:40;;;;;;;25.85;9.10;;;13.60;71.80;;;;;;6251950;23;20004;-75
2021/08/28 03:51:06;;;;;;;26.95;7.85;;;13.60;74.80;;;;;;6251447;23;20015;-74
2021/08/28 03:53:32;;;;;;;22.52;8.07;;;13.60;73.30;;;;;;6251317;23;20058;-74
2021/08/28 03:55:59;;;;;;;19.38;7.05;;;13.60;73.10;;;;;;6251793;23;20004;-74
2021/08/28 03:58:26;;;;;;;16.52;6.30;;;13.60;71.10;;;;;;6251551;23;20327;-74
2021/08/28 04:00:52;;;;;;;22.15;8.05;;;13.60;71.20;;;;;;6250386;23;20003;-74
2021/08/28 04:03:18;;;;;;;21.48;7.22;;;13.50;72.50;;;;;;6251519;23;20004;-74
2021/08/28 04:05:45;;;;;;;22.20;7.88;;;13.50;71.80;;;;;;6251644;23;20054;-74
2021/08/28 04:08:10;;;;;;;26.50;7.53;;;13.50;73.00;;;;;;6251153;23;20424;-74
2021/08/28 04:10:36;;;;;;;17.48;7.25;;;13.50;71.90;;;;;;6251137;23;20110;-75
2021/08/28 04:13:02;;;;;;;18.30;7.22;;;13.50;70.20;;;;;;6251044;23;20083;-74
2021/08/28 04:15:28;;;;;;;16.88;7.28;;;13.50;68.80;;;;;;6250840;23;20004;-74
2021/08/28 04:17:55;;;;;;;18.02;6.50;;;13.50;68.70;;;;;;6251281;23;20000;-74
2021/08/28 04:20:21;;;;;;;16.40;6.43;;;13.50;70.00;;;;;;6251044;23;20027;-74
2021/08/28 04:22:47;;;;;;;20.20;7.25;;;13.50;70.80;;;;;;6251190;23;20004;-74
2021/08/28 04:25:13;;;;;;;18.20;7.00;;;13.50;72.50;;;;;;6251297;23;20011;-74
2021/08/28 04:27:39;;;;;;;22.23;7.65;;;13.40;72.00;;;;;;6251183;23;20011;-74
2021/08/28 04:30:06;;;;;;;23.60;7.95;;;13.40;71.10;;;;;;6251322;23;20075;-74
2021/08/28 04:32:32;;;;;;;22.55;8.35;;;13.40;73.40;;;;;;6250480;23;20095;-74
2021/08/28 04:34:58;;;;;;;20.77;8.23;;;13.40;73.30;;;;;;6251200;23;20004;-74
2021/08/28 04:37:24;;;;;;;21.30;7.15;;;13.40;73.80;;;;;;6224200;23;20031;-74
2021/08/28 04:39:50;;;;;;;19.67;7.15;;;13.40;73.00;;;;;;6251137;23;20403;-74
2021/08/28 04:42:16;;;;;;;23.92;8.38;;;13.40;72.30;;;;;;6224018;23;20012;-74
2021/08/28 04:44:42;;;;;;;22.42;7.28;;;13.30;75.20;;;;;;6250834;23;19996;-74
2021/08/28 04:47:07;;;;;;;17.90;7.55;;;13.30;73.30;;;;;;6250627;23;20007;-74
2021/08/28 04:49:33;;;;;;;20.80;7.30;;;13.40;72.50;;;;;;6250990;23;20004;-74
2021/08/28 04:51:59;;;;;;;23.00;8.63;;;13.30;73.50;;;;;;6251039;23;20000;-74
2021/08/28 04:54:26;;;;;;;18.98;7.55;;;13.30;72.70;;;;;;6250732;23;20075;-74
2021/08/28 04:56:52;;;;;;;22.52;7.32;;;13.30;73.90;;;;;;6250618;23;20020;-74
2021/08/28 04:59:18;;;;;;;17.45;6.75;;;13.30;72.80;;;;;;6251142;23;20000;-74
2021/08/28 05:01:44;;;;;;;20.10;6.95;;;13.20;73.70;;;;;;6250336;23;20057;-74
2021/08/28 05:04:10;;;;;;;19.70;7.45;;;13.20;72.50;;;;;;6250540;23;20331;-74
2021/08/28 05:06:36;;;;;;;21.30;7.25;;;13.20;71.40;;;;;;6250768;23;20083;-74
2021/08/28 05:09:02;;;;;;;22.60;7.70;;;13.20;74.90;;;;;;6250744;23;20004;-74
2021/08/28 05:11:28;;;;;;;18.55;7.15;;;13.10;72.80;;;;;;6250825;23;20083;-74
2021/08/28 05:13:54;;;;;;;15.82;7.03;;;13.10;72.20;;;;;;6250774;23;20000;-74
2021/08/28 05:16:20;;;;;;;21.42;7.55;;;13.10;73.50;;;;;;6250061;23;20000;-74
2021/08/28 05:18:46;;;;;;;18.08;6.90;;;13.10;74.00;;;;;;6250711;23;19996;-73
2021/08/28 05:21:11;;;;;;;22.52;8.07;;;13.10;72.30;;;;;;6250522;23;20006;-73
2021/08/28 05:23:37;;;;;;;16.80;7.25;;;13.10;73.60;;;;;;6250564;23;20015;-74
2021/08/28 05:26:03;;;;;;;18.75;6.72;;;13.10;73.70;;;;;;6250438;23;19996;-74
2021/08/28 05:28:29;;;;;;;15.63;6.43;;;13.10;72.20;;;;;;6250287;23;20332;-73
2021/08/28 05:30:55;;;;;;;18.05;7.00;;;13.00;72.20;;;;;;6250051;23;20004;-74
2021/08/28 05:33:21;;;;;;;17.52;7.05;;;13.00;71.70;;;;;;6223356;23;20375;-73
2021/08/28 05:35:46;;;;;;;16.02;6.38;;;13.00;71.30;;;;;;6223605;23;20000;-74
2021/08/28 05:38:12;;;;;;;13.82;6.43;;;13.00;71.10;;;;;;6250491;23;19996;-73
2021/08/28 05:40:38;;;;;;;13.10;6.20;;;13.00;72.70;;;;;;6250456;23;20035;-74
2021/08/28 05:43:04;;;;;;;17.52;6.65;;;13.00;71.40;;;;;;6223986;23;20015;-74
2021/08/28 05:45:30;;;;;;;15.80;5.65;;;13.00;69.80;;;;;;6250208;23;20083;-74
2021/08/28 05:47:56;;;;;;;12.48;5.70;;;12.90;68.80;;;;;;6250595;23;20381;-76
2021/08/28 05:50:22;;;;;;;14.50;5.60;;;12.90;68.20;;;;;;6250476;23;20420;-74
2021/08/28 05:52:47;;;;;;;15.50;5.30;;;12.90;67.70;;;;;;6250340;23;20447;-74
2021/08/28 05:55:14;;;;;;;17.23;6.57;;;12.90;67.30;;;;;;6250538;23;19998;-75
2021/08/28 05:57:41;;;;;;;12.45;6.43;;;12.90;68.10;;;;;;6250630;23;20007;-74
2021/08/28 06:00:08;;;;;;;14.80;7.10;;;12.90;69.30;;;;;;6250152;23;19996;-74
2021/08/28 06:02:36;;;;;;;14.07;6.38;;;12.90;68.50;;;;;;6250343;23;20518;-75
2021/08/28 06:05:11;;;;;;;14.82;6.68;;;12.90;67.70;;;;;;6250693;23;20004;-74
2021/08/28 06:07:37;;;;;;;17.60;6.95;;;12.90;70.50;;;;;;6250543;23;20000;-75
2021/08/28 06:10:05;;;;;;;17.83;6.90;;;12.90;73.60;;;;;;6225556;23;20010;-74
2021/08/28 06:12:31;;;;;;;12.38;5.30;;;12.90;70.90;;;;;;6252271;23;20004;-75
2021/08/28 06:14:57;;;;;;;11.05;4.97;;;12.90;69.90;;;;;;6252645;23;20000;-74
2021/08/28 06:17:23;;;;;;;17.05;5.40;;;12.90;69.40;;;;;;6251955;23;20004;-74
2021/08/28 06:19:49;;;;;;;12.13;5.75;;;12.90;68.40;;;;;;6252502;23;20000;-74
2021/08/28 06:22:15;;;;;;;15.35;6.28;;;13.00;71.20;;;;;;6252362;23;20487;-74
2021/08/28 06:24:41;;;;;;;12.40;5.90;;;13.00;69.60;;;;;;6252304;23;20453;-74
2021/08/28 06:27:08;;;;;;;14.30;5.65;;;13.00;68.60;;;;;;6252185;23;20075;-73
2021/08/28 06:29:34;;;;;;;14.10;5.97;;;13.00;68.00;;;;;;6252395;23;19996;-73
2021/08/28 06:32:00;;;;;;;12.98;5.03;;;13.00;67.60;;;;;;6251919;23;20431;-74
2021/08/28 06:34:26;;;;;;;14.32;6.13;;;13.10;67.60;;;;;;6252130;23;20004;-74
2021/08/28 06:36:52;;;;;;;19.88;6.38;;;13.10;69.90;;;;;;6252077;23;20031;-74
2021/08/28 06:39:18;;;;;;;17.10;6.97;;;13.10;70.10;;;;;;6251845;23;20008;-74
2021/08/28 06:41:44;;;;;;;13.00;6.07;;;13.20;74.50;;;;;;6252380;23;20012;-75
2021/08/28 06:44:09;;;;;;;17.13;6.03;;;13.20;71.20;;;;;;6252365;23;20079;-74
2021/08/28 06:46:35;;;;;;;19.40;7.22;;;13.30;70.50;;;;;;6224674;23;20004;-74
2021/08/28 06:49:01;;;;;;;20.85;6.40;;;13.30;71.70;;;;;;6252411;23;20000;-74
2021/08/28 06:51:27;;;;;;;16.65;6.38;;;13.40;72.00;;;;;;6252174;23;20043;-74
2021/08/28 06:53:53;;;;;;;14.57;6.25;;;13.40;71.40;;;;;;6252077;23;20004;-74
2021/08/28 06:56:18;;;;;;;10.52;5.07;;;13.50;70.30;;;;;;6251710;23;20003;-74
2021/08/28 06:58:44;;;;;;;14.93;5.40;;;13.50;69.50;;;;;;6252373;23;19992;-74
2021/08/28 07:01:11;;;;;;;15.73;5.47;;;13.60;69.90;;;;;;6251521;23;20327;-74
2021/08/28 07:03:36;;;;;;;18.27;6.18;;;13.60;69.60;;;;;;6251605;23;20432;-74
2021/08/28 07:06:03;;;;;;;17.65;5.88;;;13.70;69.70;;;;;;6225476;23;20005;-74
2021/08/28 07:08:28;;;;;;;14.18;6.90;;;13.80;69.70;;;;;;6251961;23;20004;-75
2021/08/28 07:10:54;;;;;;;15.75;5.95;;;13.90;69.90;;;;;;6252131;23;20050;-75
2021/08/28 07:13:21;;;;;;;13.75;6.32;;;14.00;70.20;;;;;;6252035;23;20062;-75
2021/08/28 07:15:48;;;;;;;13.82;5.95;;;14.20;70.70;;;;;;6251404;23;20056;-74
2021/08/28 07:18:14;;;;;;;16.88;6.47;;;14.30;70.90;;;;;;6251881;23;20028;-76
2021/08/28 07:20:41;;;;;;;17.05;6.30;;;14.40;71.00;;;;;;6225361;23;19996;-76
2021/08/28 07:23:07;;;;;;;22.65;6.03;;;14.60;71.50;;;;;;6251897;23;20028;-76
2021/08/28 07:25:37;;;;;;;10.07;4.95;;;14.70;71.80;;;;;;6251757;23;20007;-76
2021/08/28 07:28:07;;;;;;;18.27;6.78;;;14.90;72.10;;;;;;6252062;23;20004;-76
2021/08/28 07:30:34;;;;;;;17.75;7.22;;;15.10;73.60;;;;;;6251400;23;20083;-76
2021/08/28 07:33:00;;;;;;;13.57;5.60;;;15.40;75.80;;;;;;6251660;23;19999;-76
2021/08/28 07:35:27;;;;;;;19.60;5.82;;;15.70;77.50;;;;;;6251705;23;19996;-76
2021/08/28 07:37:53;;;;;;;21.83;5.68;;;16.00;78.20;;;;;;6251413;23;20004;-76
2021/08/28 07:40:19;;;;;;;16.05;5.85;;;16.40;77.50;;;;;;6251377;23;20040;-77
2021/08/28 07:42:45;;;;;;;12.80;5.43;;;16.60;77.30;;;;;;6251876;23;20367;-76
2021/08/28 07:45:11;;;;;;;18.70;5.28;;;16.90;77.20;;;;;;6251339;23;20004;-76
2021/08/28 07:47:37;;;;;;;19.25;5.28;;;17.10;77.10;;;;;;6251792;23;20420;-76
2021/08/28 07:50:03;;;;;;;14.73;4.40;;;17.30;76.50;;;;;;6251739;23;20000;-76
2021/08/28 07:52:29;;;;;;;21.42;4.93;;;17.50;76.50;;;;;;6224199;23;20011;-76
2021/08/28 07:54:56;;;;;;;16.45;4.63;;;17.70;76.20;;;;;;6251530;23;20428;-73
2021/08/28 07:57:22;;;;;;;12.07;4.50;;;18.00;75.40;;;;;;6251300;23;19996;-76
2021/08/28 07:59:47;;;;;;;14.95;4.80;;;18.20;73.40;;;;;;6252116;23;20323;-76
2021/08/28 08:02:13;;;;;;;15.70;4.88;;;18.40;73.30;;;;;;6250784;23;20001;-76
2021/08/28 08:04:39;;;;;;;19.17;4.97;;;18.60;74.10;;;;;;6251421;23;20001;-75
2021/08/28 08:07:05;;;;;;;14.20;4.38;;;18.80;73.50;;;;;;6250973;23;20000;-75
2021/08/28 08:09:30;;;;;;;16.42;5.00;;;19.10;74.20;;;;;;6251279;23;20023;-73
2021/08/28 08:11:56;;;;;;;14.90;4.32;;;19.40;73.40;;;;;;6224670;23;20447;-73
2021/08/28 08:14:22;;;;;;;13.90;4.22;;;19.70;71.90;;;;;;6251466;23;20035;-73
2021/08/28 08:16:48;;;;;;;20.98;4.55;;;20.10;71.90;;;;;;6250264;23;20056;-73
2021/08/28 08:19:13;;;;;;;17.67;3.92;;;20.40;69.60;;;;;;6251311;23;20003;-73
2021/08/28 08:21:39;;;;;;;14.48;4.35;;;20.70;70.20;;;;;;6251246;23;20057;-73
2021/08/28 08:24:05;;;;;;;13.25;3.97;;;21.00;69.40;;;;;;6251055;23;20000;-72
2021/08/28 08:26:31;;;;;;;14.07;3.90;;;21.30;68.90;;;;;;6251064;23;20000;-73
2021/08/28 08:28:59;;;;;;;15.10;5.57;;;21.60;68.40;;;;;;6251194;23;20031;-73
2021/08/28 08:31:24;;;;;;;20.02;4.22;;;21.80;68.80;;;;;;6250050;23;20083;-72
2021/08/28 08:33:50;;;;;;;12.45;4.03;;;22.20;68.00;;;;;;6251048;23;20004;-72
2021/08/28 08:36:16;;;;;;;13.60;3.88;;;22.50;67.00;;;;;;6250404;23;19996;-72
2021/08/28 08:38:42;;;;;;;15.80;4.20;;;22.80;66.90;;;;;;6250701;23;20004;-72
2021/08/28 08:41:08;;;;;;;12.77;3.72;;;23.20;68.90;;;;;;6250936;23;20530;-72
2021/08/28 08:43:35;;;;;;;14.90;4.68;;;23.50;69.60;;;;;;6251152;23;20000;-72
2021/08/28 08:46:01;;;;;;;16.65;4.07;;;24.00;69.40;;;;;;6251142;23;20011;-73
2021/08/28 08:48:27;;;;;;;12.40;4.72;;;24.40;68.10;;;;;;6250901;23;20067;-72
2021/08/28 08:50:54;;;;;;;14.98;3.42;;;24.80;64.60;;;;;;6250132;23;20000;-73
2021/08/28 08:53:26;;;;;;;14.88;3.42;;;25.20;62.20;;;;;;6250533;23;20004;-73
2021/08/28 08:55:52;;;;;;;16.10;3.45;;;25.50;63.00;;;;;;6251223;23;20007;-72
2021/08/28 08:58:19;;;;;;;11.98;3.38;;;25.70;63.30;;;;;;6250895;23;20339;-73
2021/08/28 09:00:45;;;;;;;15.35;3.00;;;26.00;63.10;;;;;;6250605;23;20366;-73
2021/08/28 09:03:12;;;;;;;11.32;2.83;;;26.30;62.30;;;;;;6250621;23;20087;-73
2021/08/28 09:05:38;;;;;;;12.65;3.15;;;26.60;59.60;;;;;;6223286;23;20004;-73
2021/08/28 09:08:04;;;;;;;9.68;2.53;;;26.90;60.60;;;;;;6250730;23;20029;-73
2021/08/28 09:10:30;;;;;;;10.45;2.60;;;27.20;60.30;;;;;;6250604;23;20011;-73
2021/08/28 09:13:17;;;;;;;10.68;2.78;;;27.50;60.80;;;;;;6250856;23;20004;-73
2021/08/28 09:15:48;;;;;;;12.35;3.53;;;27.70;56.80;;;;;;6250788;23;20372;-73
2021/08/28 09:18:14;;;;;;;17.07;3.53;;;27.90;59.70;;;;;;6250550;23;20007;-73
2021/08/28 09:20:41;;;;;;;13.90;3.33;;;28.20;59.20;;;;;;6250571;23;20000;-73
2021/08/28 09:23:10;;;;;;;10.60;2.50;;;28.40;59.60;;;;;;6250519;23;19996;-73
2021/08/28 09:25:40;;;;;;;11.50;2.72;;;28.70;56.30;;;;;;6250734;23;20081;-73
2021/08/28 09:28:07;;;;;;;13.35;2.80;;;28.90;55.50;;;;;;6250719;23;20030;-72
2021/08/28 09:30:43;;;;;;;12.38;3.45;;;29.20;54.80;;;;;;6250168;23;20048;-73
2021/08/28 09:33:19;;;;;;;13.77;3.08;;;29.40;54.50;;;;;;6250402;23;20012;-72
2021/08/28 09:35:50;;;;;;;12.40;3.13;;;29.50;55.40;;;;;;6250159;23;20008;-72
2021/08/28 09:38:21;;;;;;;11.00;3.08;;;29.70;54.80;;;;;;6250604;23;19996;-73
2021/08/28 09:40:53;;;;;;;10.23;3.05;;;29.80;55.60;;;;;;6250766;23;20092;-73
2021/08/28 09:43:21;;;;;;;11.60;2.88;;;29.90;57.00;;;;;;6250000;23;20000;-73
2021/08/28 09:45:50;;;;;;;11.52;2.60;;;30.10;57.20;;;;;;6250551;23;20058;-73
2021/08/28 09:48:17;;;;;;;12.00;2.45;;;30.30;57.30;;;;;;6250595;23;20009;-73
2021/08/28 09:50:49;;;;;;;13.30;2.45;;;30.30;54.70;;;;;;6250396;23;20000;-73
2021/08/28 09:53:18;;;;;;;;;;;30.30;54.30;;;;;;6250658;23;20004;-73
2021/08/28 09:55:44;;;;;;;10.68;2.42;;;30.30;54.00;;;;;;6250495;23;19950;-73
2021/08/28 09:58:11;;;;;;;9.55;2.10;;;30.40;55.60;;;;;;6250213;23;20023;-72
2021/08/28 10:00:45;;;;;;;12.32;2.50;;;30.70;50.80;;;;;;6249764;23;20000;-72
2021/08/28 10:03:12;;;;;;;9.48;2.38;;;30.70;52.10;;;;;;6250451;23;20004;-72
2021/08/28 10:05:39;;;;;;;9.52;1.90;;;30.70;51.40;;;;;;6250633;23;20483;-72
2021/08/28 10:08:09;;;;;;;7.80;2.10;;;30.70;47.30;;;;;;6250055;23;20087;-71
2021/08/28 10:10:36;;;;;;;11.18;2.45;;;30.60;46.40;;;;;;6250921;23;20079;-71
2021/08/28 10:13:04;;;;;;;11.85;2.30;;;30.70;44.40;;;;;;6250697;23;20055;-72
2021/08/28 10:15:32;;;;;;;12.00;2.45;;;30.80;48.50;;;;;;6250268;23;20000;-72
2021/08/28 10:17:59;;;;;;;8.57;2.17;;;30.80;49.90;;;;;;6250111;23;20054;-72
2021/08/28 10:20:28;;;;;;;12.40;3.15;;;31.10;47.10;;;;;;6250386;23;20000;-73
2021/08/28 10:22:56;;;;;;;9.00;2.45;;;31.20;49.00;;;;;;6250376;23;20008;-72
2021/08/28 10:25:25;;;;;;;9.07;2.28;;;31.20;47.60;;;;;;6250615;23;20338;-73
2021/08/28 10:27:53;;;;;;;13.63;2.53;;;31.10;47.00;;;;;;6250594;23;20012;-73
2021/08/28 10:30:20;;;;;;;8.70;2.60;;;30.90;46.50;;;;;;6250274;23;20004;-73
2021/08/28 10:32:47;;;;;;;12.80;3.08;;;30.80;46.90;;;;;;6250375;23;20004;-74
2021/08/28 10:35:15;;;;;;;12.48;3.33;;;30.90;49.20;;;;;;6249743;23;20035;-73
2021/08/28 10:37:42;;;;;;;9.95;2.30;;;31.10;49.90;;;;;;6249922;23;20662;-73
2021/08/28 10:40:14;;;;;;;8.88;2.20;;;31.40;47.60;;;;;;6249943;23;20103;-72
2021/08/28 10:42:41;;;;;;;12.40;2.88;;;31.70;45.60;;;;;;6250272;23;20008;-73
2021/08/28 10:45:09;;;;;;;8.93;2.70;;;31.90;48.10;;;;;;6249868;23;20004;-74
2021/08/28 10:47:35;;;;;;;12.98;2.33;;;32.10;47.00;;;;;;6250081;23;20039;-72
2021/08/28 10:50:10;;;;;;;10.23;2.70;;;32.30;46.30;;;;;;6250045;23;20428;-72
2021/08/28 10:52:40;;;;;;;11.43;2.70;;;32.50;47.60;;;;;;6249614;23;20000;-72
2021/08/28 10:55:14;;;;;;;12.80;3.05;;;32.60;45.30;;;;;;6224278;23;20007;-73
2021/08/28 10:57:40;;;;;;;9.85;2.25;;;32.60;46.00;;;;;;6252117;23;20000;-73
2021/08/28 11:00:17;;;;;;;6.90;2.30;;;32.40;45.00;;;;;;6252046;23;19997;-73
2021/08/28 11:02:47;;;;;;;9.38;2.40;;;32.00;41.70;;;;;;6251751;23;20332;-73
2021/08/28 11:05:17;;;;;;;11.07;2.67;;;31.60;44.20;;;;;;6252099;23;20004;-73
2021/08/28 11:07:43;;;;;;;9.20;2.35;;;31.20;43.20;;;;;;6251753;23;20054;-74
2021/08/28 11:10:19;;;;;;;10.57;2.47;;;31.20;45.10;;;;;;6251950;23;20040;-74
2021/08/28 11:12:51;;;;;;;7.85;2.53;;;31.40;42.60;;;;;;6225192;23;20008;-74
2021/08/28 11:15:35;;;;;;;10.45;2.13;;;31.50;44.10;;;;;;6251779;23;20007;-75
2021/08/28 11:18:07;;;;;;;8.30;2.10;;;31.80;43.70;;;;;;6251628;23;20004;-75
2021/08/28 11:20:35;;;;;;;;;;;31.90;44.90;;;;;;6252337;23;20022;-74
2021/08/28 11:23:05;;;;;;;10.32;3.42;;;32.20;44.50;;;;;;6252069;23;19978;-73
2021/08/28 11:25:33;;;;;;;12.05;3.15;;;32.40;46.40;;;;;;6251811;23;20003;-74
2021/08/28 11:28:00;;;;;;;8.80;2.50;;;32.50;43.40;;;;;;6251910;23;20431;-74
2021/08/28 11:30:46;;;;;;;8.73;2.67;;;32.40;43.60;;;;;;6251594;23;20007;-73
2021/08/28 11:33:23;;;;;;;10.43;2.67;;;32.00;42.00;;;;;;6250787;23;20036;-74
2021/08/28 11:36:04;;;;;;;12.00;2.60;;;31.60;43.00;;;;;;6251653;23;20006;-72
2021/08/28 11:38:37;;;;;;;9.10;2.60;;;31.20;41.80;;;;;;6251693;23;20008;-73
2021/08/28 11:41:11;;;;;;;13.90;2.83;;;30.80;41.80;;;;;;6251237;23;20081;-73
2021/08/28 11:43:43;;;;;;;8.00;1.90;;;30.50;41.30;;;;;;6251976;23;20007;-73
2021/08/28 11:46:24;;;;;;;8.98;2.00;;;30.50;41.60;;;;;;6251289;23;20004;-73
2021/08/28 11:48:50;;;;;;;11.48;2.60;;;30.70;41.80;;;;;;6251369;23;20023;-73
2021/08/28 11:51:25;;;;;;;6.63;2.40;;;30.80;41.90;;;;;;6251975;23;20011;-73
2021/08/28 11:53:56;;;;;;;7.55;2.28;;;31.00;40.80;;;;;;6251576;23;20015;-73
2021/08/28 11:56:24;;;;;;;9.20;2.33;;;31.10;42.80;;;;;;6251758;23;19996;-74
2021/08/28 11:58:54;;;;;;;10.05;2.55;;;31.20;42.40;;;;;;6251028;23;20004;-74
2021/08/28 12:01:36;;;;;;;9.50;2.40;;;31.30;43.30;;;;;;6251389;23;20080;-74
2021/08/28 12:04:12;;;;;;;8.98;2.78;;;31.50;43.40;;;;;;6224257;23;20032;-74
2021/08/28 12:06:43;;;;;;;9.55;3.30;;;31.60;43.70;;;;;;6250764;23;20030;-74
2021/08/28 12:09:11;;;;;;;8.20;2.50;;;31.70;41.80;;;;;;6251306;23;20015;-74
2021/08/28 12:11:45;;;;;;;8.50;2.25;;;31.60;41.70;;;;;;6251319;23;20339;-74
2021/08/28 12:14:11;;;;;;;8.38;2.42;;;31.60;43.10;;;;;;6251163;23;20035;-74
2021/08/28 12:16:39;;;;;;;10.93;2.60;;;31.60;42.70;;;;;;6250892;23;19996;-74
2021/08/28 12:19:09;;;;;;;8.02;2.22;;;31.60;41.80;;;;;;6251219;23;20435;-74
2021/08/28 12:21:43;;;;;;;6.35;1.75;;;31.40;41.90;;;;;;6251193;23;19996;-74
2021/08/28 12:24:13;;;;;;;10.82;2.63;;;31.10;42.60;;;;;;6251365;23;20004;-74
2021/08/28 12:26:40;;;;;;;11.15;3.17;;;30.90;42.00;;;;;;6251341;23;20004;-74
2021/08/28 12:29:06;;;;;;;10.07;2.60;;;30.70;40.30;;;;;;6251383;23;20022;-74
2021/08/28 12:31:32;;;;;;;9.65;2.47;;;30.50;41.10;;;;;;6250982;23;20499;-73
2021/08/28 12:34:19;;;;;;;9.82;2.63;;;30.40;41.90;;;;;;6250391;23;20028;-75
2021/08/28 12:36:46;;;;;;;10.45;2.40;;;30.10;41.10;;;;;;6251264;23;19996;-72
2021/08/28 12:39:13;;;;;;;8.40;1.90;;;29.90;41.10;;;;;;6251316;23;20000;-74
2021/08/28 12:41:39;;;;;;;6.90;1.90;;;29.60;40.30;;;;;;6250544;23;20015;-73